Time;durP1;ratioP1;P1;durP2;ratioP2;P2;SDS_P1;SDS_P2;PMS_P1;PMS_P2;Temp;Humidity;BMP_temperature;BMP_pressure;BME280_temperature;BME280_humidity;BME280_pressure;Samples;Min_cycle;Max_cycle;Signal;HPM_P1;HPM_P2
2023/04/10 00:01:07;;;;;;;0.83;0.83;;;;;;;11.73;69.69;99604.03;5018606;28;20198;-58
2023/04/10 00:03:34;;;;;;;0.57;0.57;;;;;;;11.73;69.36;99604.03;5019114;28;20225;-59
2023/04/10 00:06:01;;;;;;;0.50;0.50;;;;;;;11.79;69.72;99614.97;5025837;28;20256;-59
2023/04/10 00:08:28;;;;;;;0.77;0.77;;;;;;;11.80;69.72;99615.78;5016269;28;20209;-58
2023/04/10 00:10:55;;;;;;;0.60;0.60;;;;;;;11.75;70.00;99607.38;5018479;28;20637;-59
2023/04/10 00:13:24;;;;;;;0.40;0.40;;;;;;;11.75;70.06;99608.22;5027743;28;20673;-58
2023/04/10 00:15:50;;;;;;;0.77;0.77;;;;;;;11.70;70.76;99598.94;5024760;28;20205;-59
2023/04/10 00:18:17;;;;;;;0.50;0.50;;;;;;;11.71;70.79;99595.53;5021128;28;20197;-59
2023/04/10 00:20:44;;;;;;;0.50;0.50;;;;;;;11.71;70.78;99604.06;5023862;28;20212;-58
2023/04/10 00:23:11;;;;;;;0.57;0.57;;;;;;;11.69;70.70;99595.56;5020886;28;20544;-59
2023/04/10 00:25:37;;;;;;;0.93;0.93;;;;;;;11.68;71.34;99598.16;5030866;28;20208;-59
2023/04/10 00:28:04;;;;;;;0.40;0.40;;;;;;;11.65;71.15;99596.53;5023096;28;20205;-59
2023/04/10 00:30:33;;;;;;;0.50;0.50;;;;;;;11.63;71.52;99584.63;5022691;28;20255;-59
2023/04/10 00:33:00;;;;;;;0.60;0.60;;;;;;;11.62;71.46;99588.09;5024316;28;20658;-58
2023/04/10 00:35:26;;;;;;;0.57;0.57;;;;;;;11.51;71.33;99571.28;5027386;28;20293;-59
2023/04/10 00:37:55;;;;;;;0.60;0.60;;;;;;;11.54;71.24;99586.59;5021871;28;20224;-59
2023/04/10 00:40:22;;;;;;;3.73;1.13;;;;;;;11.52;71.80;99579.81;5021626;28;20259;-58
2023/04/10 00:42:49;;;;;;;0.60;0.60;;;;;;;11.48;72.16;99584.22;5018578;28;20671;-58
2023/04/10 00:45:15;;;;;;;0.50;0.50;;;;;;;11.42;72.25;99589.53;5021093;28;20697;-58
2023/04/10 00:47:44;;;;;;;0.50;0.50;;;;;;;11.29;72.76;99588.22;5025971;28;20198;-58
2023/04/10 00:50:11;;;;;;;0.63;0.63;;;;;;;11.20;72.88;99579.97;5024565;28;20682;-59
2023/04/10 00:52:38;;;;;;;0.43;0.43;;;;;;;11.11;73.44;99583.66;5021427;28;20221;-59
2023/04/10 00:55:06;;;;;;;0.43;0.43;;;;;;;10.93;74.07;99566.22;5018671;28;20674;-58
2023/04/10 00:57:33;;;;;;;0.50;0.50;;;;;;;10.99;74.80;99576.28;5017878;28;21155;-59
2023/04/10 01:00:00;;;;;;;0.70;0.70;;;;;;;10.88;75.76;99581.75;5015331;28;20202;-58
2023/04/10 01:02:27;;;;;;;0.40;0.40;;;;;;;10.80;77.59;99573.41;5016909;28;20248;-58
2023/04/10 01:04:55;;;;;;;1.33;1.33;;;;;;;10.76;77.92;99576.13;5031661;28;20205;-59
2023/04/10 01:07:35;;;;;;;0.50;0.50;;;;;;;10.62;79.36;99567.97;5032318;28;20208;-58
2023/04/10 01:10:11;;;;;;;0.50;0.50;;;;;;;10.56;79.78;99570.72;5032018;28;20280;-58
2023/04/10 01:12:50;;;;;;;0.40;0.40;;;;;;;10.49;79.88;99568.31;5032274;28;20704;-58
2023/04/10 01:15:20;;;;;;;0.60;0.60;;;;;;;10.47;80.40;99564.94;5031971;28;20263;-58
2023/04/10 01:17:56;;;;;;;0.50;0.50;;;;;;;10.43;80.15;99567.63;5031697;28;20194;-58
2023/04/10 01:20:26;;;;;;;0.43;0.43;;;;;;;10.38;80.39;99562.63;5030968;28;20204;-58
2023/04/10 01:23:31;;;;;;;0.57;0.57;;;;;;;10.37;80.64;99563.50;5031235;28;20204;-58
2023/04/10 01:26:02;;;;;;;0.60;0.60;;;;;;;10.34;80.41;99563.56;5030169;28;20320;-58
2023/04/10 01:28:59;;;;;;;0.60;0.60;;;;;;;10.33;80.68;99567.03;5030037;28;20212;-58
2023/04/10 01:31:32;;;;;;;1.17;1.17;;;;;;;10.31;80.19;99567.94;5030276;28;20221;-58
2023/04/10 01:34:05;;;;;;;0.50;0.50;;;;;;;10.25;80.79;99568.94;5029505;28;20198;-59
2023/04/10 01:36:36;;;;;;;0.50;0.50;;;;;;;10.16;80.58;99547.84;5031466;28;20194;-58
2023/04/10 01:39:05;;;;;;;0.50;0.50;;;;;;;10.13;81.03;99547.91;5031511;28;20293;-58
2023/04/10 01:41:34;;;;;;;0.60;0.60;;;;;;;10.21;81.08;99559.66;5031911;28;20225;-58
2023/04/10 01:44:04;;;;;;;0.50;0.50;;;;;;;10.13;81.53;99564.13;5031588;28;20662;-58
2023/04/10 01:46:32;;;;;;;0.40;0.40;;;;;;;10.07;81.75;99553.19;5031346;28;20193;-58
2023/04/10 01:49:02;;;;;;;0.57;0.57;;;;;;;10.08;81.68;99565.94;5031609;28;20209;-59
2023/04/10 01:51:31;;;;;;;0.57;0.57;;;;;;;9.91;82.13;99534.81;5030960;28;20284;-58
2023/04/10 01:53:59;;;;;;;0.60;0.60;;;;;;;10.03;81.85;99563.50;5031721;28;20228;-58
2023/04/10 01:56:27;;;;;;;0.60;0.60;;;;;;;9.98;82.08;99562.78;5031300;28;20685;-58
2023/04/10 01:58:54;;;;;;;0.60;0.60;;;;;;;9.95;82.54;99565.41;5031118;28;20198;-58
2023/04/10 02:01:23;;;;;;;0.50;0.50;;;;;;;9.86;82.44;99567.38;5031082;28;20189;-58
2023/04/10 02:03:49;;;;;;;0.53;0.53;;;;;;;9.84;83.07;99566.56;5031050;28;20287;-58
2023/04/10 02:06:24;;;;;;;0.70;0.70;;;;;;;9.75;83.21;99557.41;5031509;28;20197;-58
2023/04/10 02:08:57;;;;;;;0.60;0.60;;;;;;;9.73;83.43;99564.25;5030686;28;20700;-58
2023/04/10 02:11:31;;;;;;;0.60;0.60;;;;;;;9.66;83.34;99559.34;5031004;28;20685;-58
2023/04/10 02:14:01;;;;;;;1.47;1.47;;;;;;;9.63;83.48;99551.75;5030854;28;20205;-58
2023/04/10 02:16:31;;;;;;;0.60;0.60;;;;;;;9.60;83.55;99551.78;5030574;28;20216;-58
2023/04/10 02:19:00;;;;;;;0.50;0.50;;;;;;;9.60;83.41;99551.78;5031065;28;20208;-58
2023/04/10 02:21:27;;;;;;;0.70;0.70;;;;;;;9.54;83.33;99547.66;5030730;28;20194;-58
2023/04/10 02:23:56;;;;;;;0.50;0.50;;;;;;;9.51;84.04;99542.63;5031087;28;20201;-58
2023/04/10 02:26:22;;;;;;;0.60;0.60;;;;;;;9.47;84.05;99546.97;5029123;28;20212;-58
2023/04/10 02:28:49;;;;;;;0.80;0.80;;;;;;;9.46;84.53;99544.47;5030820;28;20201;-58
2023/04/10 02:31:16;;;;;;;0.57;0.57;;;;;;;9.45;84.50;99548.72;5029344;28;20209;-58
2023/04/10 02:33:44;;;;;;;0.67;0.67;;;;;;;9.37;86.11;99527.59;5030587;28;20275;-58
2023/04/10 02:36:11;;;;;;;0.40;0.40;;;;;;;9.40;87.81;99535.19;5030302;28;20224;-58
2023/04/10 02:38:38;;;;;;;0.60;0.60;;;;;;;9.39;87.79;99548.03;5030675;28;20285;-58
2023/04/10 02:41:05;;;;;;;0.70;0.70;;;;;;;9.35;87.49;99539.59;5030842;28;20197;-58
2023/04/10 02:43:32;;;;;;;0.67;0.67;;;;;;;9.26;87.49;99537.25;5028196;28;20577;-58
2023/04/10 02:45:59;;;;;;;0.60;0.60;;;;;;;9.24;87.72;99533.84;5030558;28;20210;-58
2023/04/10 02:48:26;;;;;;;0.57;0.57;;;;;;;9.22;87.40;99538.16;5030421;28;20233;-59
2023/04/10 02:50:57;;;;;;;0.40;0.40;;;;;;;9.21;87.82;99536.47;5030436;28;20562;-58
2023/04/10 02:53:24;;;;;;;0.60;0.60;;;;;;;9.18;87.59;99535.72;5030330;28;20685;-58
2023/04/10 02:55:52;;;;;;;0.60;0.60;;;;;;;9.13;87.70;99538.38;5030159;28;20208;-58
2023/04/10 02:58:20;;;;;;;0.67;0.67;;;;;;;9.11;88.27;99537.56;5030865;28;20627;-58
2023/04/10 03:00:51;;;;;;;0.60;0.60;;;;;;;9.01;88.80;99523.31;5030261;28;20229;-58
2023/04/10 03:03:18;;;;;;;0.60;0.60;;;;;;;9.14;89.00;99532.41;5026304;28;20233;-58
2023/04/10 03:05:48;;;;;;;0.50;0.50;;;;;;;9.16;88.35;99530.66;5024409;28;20201;-58
2023/04/10 03:08:16;;;;;;;0.50;0.50;;;;;;;9.17;88.41;99532.34;5019400;28;20637;-58
2023/04/10 03:10:44;;;;;;;0.60;0.60;;;;;;;9.18;88.25;99531.44;5022046;28;20678;-58
2023/04/10 03:13:11;;;;;;;0.70;0.70;;;;;;;9.13;88.17;99520.47;5029078;28;20655;-57
2023/04/10 03:15:38;;;;;;;0.60;0.60;;;;;;;9.15;88.33;99531.50;5022294;28;20666;-58
2023/04/10 03:18:05;;;;;;;0.70;0.70;;;;;;;9.09;89.78;99534.22;5023382;28;20197;-58
2023/04/10 03:20:32;;;;;;;1.00;1.00;;;;;;;9.04;90.61;99530.91;5017393;28;20646;-57
2023/04/10 03:22:59;;;;;;;0.53;0.53;;;;;;;9.04;91.07;99532.63;5024048;28;20637;-58
2023/04/10 03:25:27;;;;;;;0.50;0.50;;;;;;;9.05;91.44;99530.03;5020167;28;20285;-58
2023/04/10 03:27:54;;;;;;;0.60;0.60;;;;;;;9.09;91.84;99531.66;5020798;28;20739;-58
2023/04/10 03:30:21;;;;;;;0.60;0.60;;;;;;;9.10;91.83;99535.91;5028287;28;20249;-58
2023/04/10 03:32:48;;;;;;;0.60;0.60;;;;;;;9.07;91.17;99535.97;5021158;28;20300;-58
2023/04/10 03:35:14;;;;;;;0.57;0.57;;;;;;;8.96;91.16;99523.41;5020414;28;20682;-58
2023/04/10 03:37:42;;;;;;;0.50;0.50;;;;;;;9.05;91.11;99537.69;5013875;28;20198;-58
2023/04/10 03:40:10;;;;;;;1.03;1.03;;;;;;;9.02;91.83;99540.31;5026020;28;20678;-58
2023/04/10 03:42:38;;;;;;;0.63;0.63;;;;;;;8.92;91.35;99523.50;5022275;28;20200;-58
2023/04/10 03:45:05;;;;;;;0.70;0.70;;;;;;;9.01;92.11;99540.38;5022128;28;20202;-59
2023/04/10 03:47:33;;;;;;;0.70;0.70;;;;;;;8.97;91.96;99539.59;5023881;28;20202;-58
2023/04/10 03:50:00;;;;;;;0.60;0.60;;;;;;;9.00;91.79;99542.09;5015323;28;20198;-57
2023/04/10 03:52:27;;;;;;;0.60;0.60;;;;;;;9.02;92.01;99532.66;5015692;28;20238;-59
2023/04/10 03:54:54;;;;;;;0.50;0.50;;;;;;;9.02;91.40;99537.75;5018501;28;20205;-58
2023/04/10 03:57:21;;;;;;;0.60;0.60;;;;;;;9.01;91.86;99538.66;5015950;28;20212;-58
2023/04/10 03:59:50;;;;;;;0.50;0.50;;;;;;;9.01;91.36;99538.66;5018143;28;20786;-58
2023/04/10 04:02:17;;;;;;;0.60;0.60;;;;;;;8.99;91.20;99537.84;5021665;28;20209;-59
2023/04/10 04:04:44;;;;;;;0.63;0.63;;;;;;;9.00;91.61;99541.25;5026526;28;20201;-58
2023/04/10 04:07:12;;;;;;;0.60;0.60;;;;;;;8.94;91.73;99534.56;5023040;28;20618;-58
2023/04/10 04:09:39;;;;;;;0.60;0.60;;;;;;;8.98;91.87;99550.66;5024563;28;20658;-58
2023/04/10 04:12:06;;;;;;;0.50;0.50;;;;;;;9.03;91.97;99544.56;5027528;28;20245;-58
2023/04/10 04:14:33;;;;;;;0.70;0.70;;;;;;;8.96;92.18;99522.56;5020612;28;20210;-58
2023/04/10 04:17:01;;;;;;;0.50;0.50;;;;;;;9.01;92.33;99545.50;5023070;28;20206;-58
2023/04/10 04:19:28;;;;;;;0.50;0.50;;;;;;;9.02;92.38;99545.44;5020521;28;20231;-57
2023/04/10 04:21:56;;;;;;;0.47;0.47;;;;;;;9.04;92.67;99551.38;5016327;28;20224;-58
2023/04/10 04:24:23;;;;;;;0.60;0.60;;;;;;;9.08;92.72;99552.97;5021272;28;20586;-58
2023/04/10 04:26:50;;;;;;;0.47;0.47;;;;;;;9.11;92.28;99542.66;5019488;28;20682;-58
2023/04/10 04:29:17;;;;;;;0.60;0.60;;;;;;;9.19;92.40;99540.81;5022171;28;20248;-58
2023/04/10 04:31:43;;;;;;;0.77;0.77;;;;;;;9.21;93.04;99539.03;5018430;28;20307;-58
2023/04/10 04:34:12;;;;;;;0.50;0.50;;;;;;;9.14;93.50;99522.19;5022995;28;20209;-58
2023/04/10 04:36:38;;;;;;;0.60;0.60;;;;;;;9.28;93.33;99535.47;5028360;28;20201;-58
2023/04/10 04:39:05;;;;;;;0.60;0.60;;;;;;;9.35;94.58;99539.59;5024617;28;20201;-58
2023/04/10 04:41:32;;;;;;;0.70;0.70;;;;;;;9.49;94.63;99537.56;5026205;28;20659;-58
2023/04/10 04:43:59;;;;;;;0.50;0.50;;;;;;;9.74;93.80;99550.59;5024899;28;20205;-58
2023/04/10 04:46:26;;;;;;;0.90;0.90;;;;;;;9.86;91.34;99544.31;5021009;28;20205;-58
2023/04/10 04:48:53;;;;;;;0.60;0.60;;;;;;;9.92;91.10;99539.03;5019304;28;20206;-58
2023/04/10 04:51:21;;;;;;;0.57;0.57;;;;;;;9.98;91.58;99538.91;5020503;28;20229;-58
2023/04/10 04:53:48;;;;;;;0.67;0.67;;;;;;;10.08;90.08;99552.31;5017939;28;20225;-58
2023/04/10 04:56:15;;;;;;;0.63;0.63;;;;;;;10.05;89.92;99560.91;5016559;28;20267;-57
2023/04/10 04:58:43;;;;;;;0.60;0.60;;;;;;;10.03;90.04;99558.41;5015707;28;20697;-58
2023/04/10 05:01:10;;;;;;;0.47;0.47;;;;;;;10.02;90.43;99571.22;5019841;28;20206;-59
2023/04/10 05:03:37;;;;;;;0.50;0.50;;;;;;;10.06;90.05;99567.72;5022537;28;20699;-58
2023/04/10 05:06:04;;;;;;;0.60;0.60;;;;;;;9.98;89.10;99564.53;5023066;28;20217;-59
2023/04/10 05:08:32;;;;;;;0.77;0.77;;;;;;;10.06;89.25;99562.59;5021617;28;20220;-58
2023/04/10 05:10:59;;;;;;;0.70;0.70;;;;;;;10.05;89.97;99555.78;5021947;28;20255;-58
2023/04/10 05:13:26;;;;;;;0.40;0.40;;;;;;;9.99;90.66;99551.66;5024993;28;20218;-58
2023/04/10 05:15:53;;;;;;;0.67;0.67;;;;;;;9.88;91.53;99553.66;5026629;28;20205;-59
2023/04/10 05:18:22;;;;;;;0.43;0.43;;;;;;;9.79;92.54;99559.00;5019884;28;20232;-58
2023/04/10 05:20:49;;;;;;;1.07;1.07;;;;;;;9.80;93.45;99564.94;5024012;28;20198;-58
2023/04/10 05:23:16;;;;;;;0.70;0.70;;;;;;;9.79;92.93;99568.41;5017263;28;20284;-58
2023/04/10 05:25:44;;;;;;;0.60;0.60;;;;;;;9.82;92.63;99568.34;5025263;28;20292;-59
2023/04/10 05:28:11;;;;;;;0.60;0.60;;;;;;;9.89;93.52;99564.72;5022177;28;20197;-59
2023/04/10 05:30:38;;;;;;;0.50;0.50;;;;;;;9.95;94.84;99574.84;5025400;28;20567;-58
2023/04/10 05:33:05;;;;;;;0.70;0.70;;;;;;;9.99;95.69;99574.72;5020302;28;20218;-59
2023/04/10 05:35:31;;;;;;;0.50;0.50;;;;;;;10.06;96.36;99577.97;5023306;28;20209;-58
2023/04/10 05:37:59;;;;;;;0.60;0.60;;;;;;;10.17;97.41;99576.00;5023246;28;20210;-59
2023/04/10 05:40:26;;;;;;;0.50;0.50;;;;;;;10.28;95.16;99576.56;5026539;28;20267;-59
2023/04/10 05:42:54;;;;;;;1.10;1.10;;;;;;;10.36;93.94;99569.53;5023697;28;20198;-58
2023/04/10 05:45:21;;;;;;;0.50;0.50;;;;;;;10.41;92.68;99570.22;5024867;28;20293;-59
2023/04/10 05:47:48;;;;;;;0.50;0.50;;;;;;;10.58;94.23;99576.63;5018445;28;20202;-59
2023/04/10 05:50:15;;;;;;;0.70;0.70;;;;;;;10.67;89.45;99573.81;5019282;28;20205;-59
2023/04/10 05:52:42;;;;;;;0.50;0.50;;;;;;;10.71;90.48;99570.28;5021709;28;20232;-58
2023/04/10 05:55:09;;;;;;;0.60;0.60;;;;;;;10.81;91.59;99569.13;5022919;28;20205;-58
2023/04/10 05:57:36;;;;;;;0.60;0.60;;;;;;;11.05;90.91;99569.25;5021013;28;20670;-58
2023/04/10 06:00:06;;;;;;;1.07;1.07;;;;;;;11.40;90.90;99570.78;5025087;28;20206;-59
2023/04/10 06:02:33;;;;;;;0.80;0.80;;;;;;;11.73;86.22;99557.81;5022734;28;20320;-59
2023/04/10 06:05:00;;;;;;;0.50;0.50;;;;;;;12.21;83.43;99570.75;5021387;28;20208;-58
2023/04/10 06:07:27;;;;;;;0.50;0.50;;;;;;;12.49;82.91;99574.88;5022526;28;20197;-59
2023/04/10 06:09:54;;;;;;;0.53;0.53;;;;;;;12.69;79.96;99574.19;5019950;28;20209;-59
2023/04/10 06:12:21;;;;;;;0.50;0.50;;;;;;;12.69;78.96;99575.91;5019895;28;20213;-59
2023/04/10 06:14:47;;;;;;;0.57;0.57;;;;;;;12.65;77.06;99582.91;5020478;28;20198;-58
2023/04/10 06:17:16;;;;;;;0.60;0.60;;;;;;;12.64;78.43;99576.91;5023200;28;20212;-59
2023/04/10 06:19:42;;;;;;;0.50;0.50;;;;;;;12.74;78.21;99574.84;5019265;28;20208;-58
2023/04/10 06:22:09;;;;;;;0.50;0.50;;;;;;;12.95;80.30;99570.66;5019874;28;20208;-60
2023/04/10 06:24:36;;;;;;;0.60;0.60;;;;;;;12.97;75.11;99574.84;5017893;28;20204;-58
2023/04/10 06:27:03;;;;;;;0.40;0.40;;;;;;;13.00;77.17;99568.75;5024620;28;20201;-59
2023/04/10 06:29:30;;;;;;;0.60;0.60;;;;;;;13.05;75.12;99572.00;5020979;28;20209;-58
2023/04/10 06:31:56;;;;;;;0.63;0.63;;;;;;;13.09;75.56;99563.28;5019584;28;20201;-59
2023/04/10 06:34:25;;;;;;;0.50;0.50;;;;;;;13.15;73.38;99574.19;5021661;28;20288;-59
2023/04/10 06:36:51;;;;;;;0.40;0.40;;;;;;;13.20;73.14;99576.59;5019266;28;20210;-59
2023/04/10 06:39:19;;;;;;;1.53;0.70;;;;;;;13.18;73.43;99567.25;5020389;28;20233;-59
2023/04/10 06:41:46;;;;;;;0.67;0.67;;;;;;;13.16;72.76;99575.03;5020063;28;20303;-59
2023/04/10 06:44:13;;;;;;;0.50;0.50;;;;;;;13.19;71.39;99580.06;5020707;28;20641;-59
2023/04/10 06:46:40;;;;;;;0.50;0.50;;;;;;;13.19;71.92;99580.06;5025219;28;20641;-59
2023/04/10 06:49:06;;;;;;;0.70;0.70;;;;;;;13.19;70.98;99580.06;5015190;28;20202;-58
2023/04/10 06:51:35;;;;;;;0.73;0.73;;;;;;;13.18;70.25;99580.97;5019677;28;20213;-58
2023/04/10 06:54:02;;;;;;;0.60;0.60;;;;;;;13.27;71.44;99583.19;5025722;28;20652;-59
2023/04/10 06:56:28;;;;;;;0.60;0.60;;;;;;;13.26;68.57;99586.66;5019992;28;20272;-60
2023/04/10 06:58:56;;;;;;;0.70;0.70;;;;;;;13.29;69.26;99591.69;5024202;28;20197;-60
2023/04/10 07:01:23;;;;;;;0.70;0.70;;;;;;;13.40;68.50;99589.56;5019344;28;20217;-59
2023/04/10 07:03:50;;;;;;;0.60;0.60;;;;;;;13.55;68.75;99593.25;5021347;28;20686;-59
2023/04/10 07:06:16;;;;;;;0.50;0.50;;;;;;;13.68;66.28;99590.16;5021246;28;20699;-59
2023/04/10 07:08:44;;;;;;;0.67;0.67;;;;;;;13.84;65.63;99590.38;5020402;28;20202;-59
2023/04/10 07:11:11;;;;;;;0.50;0.50;;;;;;;14.04;67.18;99586.97;5022145;28;20426;-58
2023/04/10 07:13:38;;;;;;;0.40;0.40;;;;;;;14.22;67.32;99591.34;5019082;28;20273;-59
2023/04/10 07:16:07;;;;;;;0.50;0.50;;;;;;;14.20;62.46;99593.19;5019187;28;20228;-58
2023/04/10 07:18:34;;;;;;;0.50;0.50;;;;;;;14.20;64.96;99590.59;5017596;28;20214;-58
2023/04/10 07:21:01;;;;;;;0.50;0.50;;;;;;;14.33;63.46;99589.22;5014665;28;20199;-59
2023/04/10 07:23:27;;;;;;;0.40;0.40;;;;;;;14.50;65.07;99591.94;5019360;28;20201;-59
2023/04/10 07:25:57;;;;;;;0.60;0.60;;;;;;;14.67;64.94;99594.59;5020966;28;20264;-59
2023/04/10 07:28:23;;;;;;;0.70;0.70;;;;;;;14.79;63.00;99589.81;5024016;28;20240;-59
2023/04/10 07:30:50;;;;;;;0.57;0.57;;;;;;;14.97;62.73;99586.41;5018102;28;20210;-60
2023/04/10 07:33:17;;;;;;;0.63;0.63;;;;;;;15.10;64.49;99582.34;5017638;28;20235;-58
2023/04/10 07:35:44;;;;;;;0.47;0.47;;;;;;;15.10;60.29;99590.09;5023642;28;20701;-59
2023/04/10 07:38:12;;;;;;;0.40;0.40;;;;;;;15.17;61.01;99592.34;5026217;28;20205;-59
2023/04/10 07:40:38;;;;;;;0.50;0.50;;;;;;;15.24;60.17;99580.00;5027451;28;20688;-60
2023/04/10 07:43:06;;;;;;;0.50;0.50;;;;;;;15.28;60.13;99581.53;5018451;28;20198;-59
2023/04/10 07:45:33;;;;;;;0.60;0.60;;;;;;;15.32;58.05;99583.03;5028881;28;20829;-60
2023/04/10 07:48:01;;;;;;;0.40;0.40;;;;;;;15.40;56.31;99575.78;5023000;28;20206;-59
2023/04/10 07:50:29;;;;;;;0.50;0.50;;;;;;;15.41;57.43;99577.44;5025958;28;20212;-59
2023/04/10 07:52:56;;;;;;;0.60;0.60;;;;;;;15.49;55.28;99577.97;5025327;28;20211;-60
2023/04/10 07:55:23;;;;;;;0.60;0.60;;;;;;;15.59;55.12;99566.28;5022322;28;20645;-60
2023/04/10 07:57:51;;;;;;;0.53;0.53;;;;;;;15.87;59.29;99567.50;5023387;28;20763;-60
2023/04/10 08:00:19;;;;;;;0.50;0.50;;;;;;;16.12;55.27;99570.59;5027657;28;20205;-59
2023/04/10 08:02:46;;;;;;;0.40;0.40;;;;;;;16.20;54.89;99565.84;5019560;28;20261;-60
2023/04/10 08:05:13;;;;;;;0.53;0.53;;;;;;;16.16;54.39;99561.75;5024159;28;20673;-59
2023/04/10 08:07:39;;;;;;;0.40;0.40;;;;;;;16.42;54.80;99558.66;5025602;28;20293;-60
2023/04/10 08:10:07;;;;;;;0.50;0.50;;;;;;;16.78;54.75;99551.59;5019147;28;20215;-60
2023/04/10 08:12:34;;;;;;;0.50;0.50;;;;;;;17.02;52.69;99559.84;5024263;28;20201;-59
2023/04/10 08:15:00;;;;;;;0.53;0.53;;;;;;;17.08;51.17;99553.47;5022696;28;20224;-60
2023/04/10 08:17:29;;;;;;;0.50;0.50;;;;;;;16.80;50.29;99549.75;5024407;28;20209;-60
2023/04/10 08:19:56;;;;;;;0.90;0.90;;;;;;;16.78;51.83;99551.59;5026605;28;20650;-59
2023/04/10 08:22:23;;;;;;;0.40;0.40;;;;;;;16.73;50.82;99553.63;5021053;28;20709;-60
2023/04/10 08:24:49;;;;;;;0.50;0.50;;;;;;;16.70;50.93;99547.75;5028189;28;20214;-59
2023/04/10 08:27:16;;;;;;;0.47;0.47;;;;;;;16.49;51.92;99552.25;5024554;28;20256;-60
2023/04/10 08:29:43;;;;;;;0.50;0.50;;;;;;;16.24;50.30;99551.84;5025120;28;20252;-60
2023/04/10 08:32:10;;;;;;;0.50;0.50;;;;;;;16.33;52.81;99547.94;5024477;28;20730;-60
2023/04/10 08:34:38;;;;;;;0.57;0.57;;;;;;;16.30;53.21;99551.53;5020266;28;20616;-60
2023/04/10 08:37:06;;;;;;;0.40;0.40;;;;;;;16.12;51.37;99530.00;5024085;28;20239;-60
2023/04/10 08:39:35;;;;;;;0.50;0.50;;;;;;;15.87;50.72;99544.25;5024376;28;20267;-59
2023/04/10 08:42:02;;;;;;;0.40;0.40;;;;;;;15.87;51.30;99544.25;5022256;28;20232;-60
2023/04/10 08:44:29;;;;;;;0.83;0.83;;;;;;;15.65;51.68;99547.91;5026096;28;20684;-59
2023/04/10 08:46:59;;;;;;;0.50;0.50;;;;;;;15.45;51.30;99545.38;5026718;28;20212;-60
2023/04/10 08:49:39;;;;;;;0.57;0.57;;;;;;;15.61;52.78;99543.78;5020615;28;20205;-60
2023/04/10 08:52:12;;;;;;;0.43;0.43;;;;;;;15.70;51.50;99542.50;5020437;28;20216;-59
2023/04/10 08:54:40;;;;;;;0.50;0.50;;;;;;;15.79;51.78;99528.28;5023191;28;20376;-59
2023/04/10 08:57:12;;;;;;;0.60;0.60;;;;;;;15.98;50.89;99526.47;5022777;28;20209;-59
2023/04/10 08:59:39;;;;;;;0.50;0.50;;;;;;;16.06;50.61;99535.50;5025023;28;20212;-59
2023/04/10 09:02:06;;;;;;;0.53;0.53;;;;;;;16.13;51.42;99526.53;5022420;28;20208;-60
2023/04/10 09:04:33;;;;;;;0.50;0.50;;;;;;;15.77;50.57;99523.19;5025897;28;20216;-58
2023/04/10 09:07:00;;;;;;;0.50;0.50;;;;;;;15.60;52.19;99523.19;5019485;28;20696;-59
2023/04/10 09:09:31;;;;;;;0.50;0.50;;;;;;;15.50;50.70;99515.06;5026140;28;20585;-59
2023/04/10 09:12:02;;;;;;;0.60;0.60;;;;;;;15.35;51.22;99515.72;5021385;28;20212;-60
2023/04/10 09:14:31;;;;;;;0.50;0.50;;;;;;;15.54;53.51;99516.56;5028583;28;20271;-60
2023/04/10 09:17:13;;;;;;;0.70;0.70;;;;;;;15.75;51.53;99509.50;5019733;28;20292;-60
2023/04/10 09:19:40;;;;;;;0.40;0.40;;;;;;;15.83;51.84;99516.91;5020345;28;20200;-60
2023/04/10 09:22:07;;;;;;;0.30;0.30;;;;;;;15.93;51.16;99497.44;5017929;28;20644;-60
2023/04/10 09:24:38;;;;;;;0.70;0.70;;;;;;;15.98;50.70;99500.59;5020345;28;20651;-59
2023/04/10 09:27:05;;;;;;;0.40;0.40;;;;;;;15.81;50.83;99504.03;5021775;28;20202;-60
2023/04/10 09:29:41;;;;;;;0.47;0.47;;;;;;;15.92;52.93;99496.59;5018523;28;20336;-61
2023/04/10 09:32:08;;;;;;;0.50;0.50;;;;;;;16.29;51.62;99495.53;5019145;28;20689;-60
2023/04/10 09:34:35;;;;;;;0.40;0.40;;;;;;;16.39;50.66;99486.38;5018230;28;20236;-60
2023/04/10 09:37:01;;;;;;;0.43;0.43;;;;;;;16.48;50.84;99501.41;5022248;28;20205;-60
2023/04/10 09:39:35;;;;;;;0.60;0.60;;;;;;;16.29;49.57;99480.00;5024566;28;20208;-60
2023/04/10 09:42:03;;;;;;;0.70;0.70;;;;;;;16.38;50.42;99495.03;5021005;28;20661;-60
2023/04/10 09:44:31;;;;;;;0.40;0.40;;;;;;;16.18;49.35;99497.84;5019455;28;20625;-60
2023/04/10 09:46:58;;;;;;;0.50;0.50;;;;;;;15.89;50.87;99498.50;5022178;28;20652;-61
2023/04/10 09:49:25;;;;;;;0.37;0.37;;;;;;;15.79;50.83;99499.84;5019752;28;20209;-60
2023/04/10 09:51:52;;;;;;;0.53;0.53;;;;;;;15.67;50.46;99496.97;5020918;28;20220;-61
2023/04/10 09:54:19;;;;;;;0.83;0.83;;;;;;;15.71;51.76;99492.47;5021037;28;20276;-61
2023/04/10 09:56:47;;;;;;;0.50;0.50;;;;;;;15.73;50.91;99491.47;5020566;28;20217;-61
2023/04/10 09:59:17;;;;;;;0.50;0.50;;;;;;;15.53;51.26;99494.22;5017767;28;20224;-61
2023/04/10 10:01:44;;;;;;;0.60;0.60;;;;;;;15.25;51.25;99476.59;5023262;28;20209;-60
2023/04/10 10:04:14;;;;;;;0.63;0.63;;;;;;;15.23;52.19;99500.81;5025414;28;20225;-61
2023/04/10 10:06:42;;;;;;;0.50;0.50;;;;;;;15.36;52.29;99486.41;5022508;28;20235;-61
2023/04/10 10:09:10;;;;;;;0.50;0.50;;;;;;;15.27;52.78;99496.34;5017866;28;20242;-59
2023/04/10 10:11:38;;;;;;;0.53;0.53;;;;;;;15.27;54.07;99498.94;5022343;28;20200;-60
2023/04/10 10:14:20;;;;;;;0.50;0.50;;;;;;;15.10;54.00;99494.56;5023449;28;20231;-60
2023/04/10 10:16:55;;;;;;;0.53;0.53;;;;;;;15.10;53.47;99492.81;5020945;28;20236;-60
2023/04/10 10:19:31;;;;;;;0.40;0.40;;;;;;;15.24;53.94;99487.84;5019441;28;20606;-60
2023/04/10 10:22:01;;;;;;;0.50;0.50;;;;;;;15.22;53.50;99483.66;5020781;28;20216;-60
2023/04/10 10:24:29;;;;;;;0.60;0.60;;;;;;;15.01;54.86;99487.25;5020004;28;20202;-60
2023/04/10 10:27:00;;;;;;;0.47;0.47;;;;;;;15.03;54.88;99472.50;5021592;28;20209;-61
2023/04/10 10:29:32;;;;;;;0.50;0.50;;;;;;;15.19;56.44;99479.47;5023849;28;20698;-60
2023/04/10 10:32:02;;;;;;;0.77;0.77;;;;;;;15.36;54.85;99476.09;5018485;28;20606;-60
2023/04/10 10:34:30;;;;;;;0.43;0.43;;;;;;;15.35;54.50;99476.97;5023393;28;20229;-61
2023/04/10 10:36:58;;;;;;;0.50;0.50;;;;;;;15.44;54.70;99479.16;5018494;28;20201;-61
2023/04/10 10:39:32;;;;;;;0.50;0.50;;;;;;;15.48;54.31;99470.34;5020111;28;20627;-61
2023/04/10 10:42:07;;;;;;;0.60;0.60;;;;;;;15.52;53.22;99466.72;5022793;28;20327;-60
2023/04/10 10:44:42;;;;;;;0.93;0.93;;;;;;;15.58;55.74;99466.41;5024969;28;20209;-61
2023/04/10 10:47:17;;;;;;;0.47;0.47;;;;;;;15.58;54.37;99466.41;5017976;28;20204;-60
2023/04/10 10:49:55;;;;;;;0.50;0.50;;;;;;;15.47;54.84;99460.91;5023308;28;20215;-61
2023/04/10 10:52:44;;;;;;;0.47;0.47;;;;;;;15.34;55.35;99462.41;5019514;28;20260;-60
2023/04/10 10:55:36;;;;;;;0.53;0.53;;;;;;;15.06;58.25;99459.47;5021639;28;20236;-60
2023/04/10 10:58:05;;;;;;;0.50;0.50;;;;;;;15.08;59.18;99457.66;5022580;28;20273;-60
2023/04/10 11:01:09;;;;;;;0.50;0.50;;;;;;;15.13;58.78;99459.09;5020452;28;20206;-60
2023/04/10 11:03:38;;;;;;;0.60;0.60;;;;;;;15.14;59.35;99457.38;5027754;28;20284;-61
2023/04/10 11:06:07;;;;;;;0.53;0.53;;;;;;;15.16;59.72;99458.13;5022031;28;20231;-60
2023/04/10 11:08:42;;;;;;;0.40;0.40;;;;;;;14.97;59.54;99452.16;5019655;28;20707;-60
2023/04/10 11:11:11;;;;;;;0.70;0.70;;;;;;;15.00;59.30;99457.16;5023777;28;20223;-61
2023/04/10 11:13:40;;;;;;;0.40;0.40;;;;;;;15.01;59.38;99459.69;5023597;28;20287;-61
2023/04/10 11:16:09;;;;;;;0.50;0.50;;;;;;;15.10;58.53;99458.41;5025987;28;20207;-61
2023/04/10 11:19:06;;;;;;;0.40;0.40;;;;;;;14.97;58.70;99463.31;5024619;28;20222;-60
2023/04/10 11:21:34;;;;;;;0.60;0.60;;;;;;;14.92;59.96;99459.28;5026114;28;20582;-61
2023/04/10 11:24:05;;;;;;;0.40;0.40;;;;;;;14.83;59.64;99460.53;5024326;28;20232;-60
2023/04/10 11:26:40;;;;;;;1.10;0.80;;;;;;;14.99;59.45;99460.69;5022054;28;20639;-61
2023/04/10 11:29:33;;;;;;;0.43;0.43;;;;;;;15.03;59.48;99460.44;5027523;28;20588;-61
2023/04/10 11:32:02;;;;;;;0.40;0.40;;;;;;;15.12;59.85;99456.63;5024343;28;20236;-61
2023/04/10 11:34:31;;;;;;;0.67;0.67;;;;;;;15.18;60.59;99457.16;5026613;28;20225;-61
2023/04/10 11:37:01;;;;;;;0.50;0.50;;;;;;;15.35;60.05;99458.91;5022321;28;20234;-61
2023/04/10 11:39:30;;;;;;;0.80;0.80;;;;;;;15.26;58.94;99459.34;5020660;28;20261;-61
2023/04/10 11:41:57;;;;;;;0.83;0.83;;;;;;;15.22;58.52;99463.00;5018334;28;20229;-61
2023/04/10 11:44:29;;;;;;;0.40;0.40;;;;;;;14.89;59.34;99454.28;5022073;28;20224;-60